Time;durP1;ratioP1;P1;durP2;ratioP2;P2;SDS_P1;SDS_P2;PMS_P1;PMS_P2;Temp;Humidity;BMP_temperature;BMP_pressure;BME280_temperature;BME280_humidity;BME280_pressure;Samples;Min_cycle;Max_cycle;Signal;HPM_P1;HPM_P2
2023/03/04 00:00:29;;;;;;;32.27;21.27;;;;;;;2.63;nan;98618.41;5052591;28;20285;-71
2023/03/04 00:02:56;;;;;;;33.27;21.27;;;;;;;2.61;nan;98622.13;5053361;28;20236;-71
2023/03/04 00:05:22;;;;;;;32.50;21.37;;;;;;;2.50;nan;98620.63;5056309;28;20227;-71
2023/03/04 00:07:48;;;;;;;28.93;19.33;;;;;;;2.65;nan;98626.09;5056204;28;20205;-71
2023/03/04 00:10:15;;;;;;;32.67;20.83;;;;;;;2.44;nan;98626.47;5055991;28;20222;-71
2023/03/04 00:12:41;;;;;;;31.40;19.87;;;;;;;2.63;nan;98625.44;5056078;28;20225;-71
2023/03/04 00:15:08;;;;;;;31.10;18.77;;;;;;;2.56;nan;98624.41;5055649;28;20227;-71
2023/03/04 00:17:35;;;;;;;29.97;20.20;;;;;;;2.58;nan;98633.75;5056153;28;20205;-71
2023/03/04 00:20:01;;;;;;;30.20;19.53;;;;;;;2.56;nan;98630.50;5055955;28;20197;-71
2023/03/04 00:22:27;;;;;;;29.87;20.80;;;;;;;2.60;nan;98628.38;5055949;28;20236;-70
2023/03/04 00:24:54;;;;;;;30.93;20.53;;;;;;;2.57;nan;98620.81;5055886;28;20568;-71
2023/03/04 00:27:20;;;;;;;29.83;19.83;;;;;;;2.50;nan;98633.75;5055819;28;20691;-71
2023/03/04 00:29:46;;;;;;;31.13;20.97;;;;;;;2.52;nan;98631.78;5055820;28;20586;-71
2023/03/04 00:32:13;;;;;;;31.33;20.43;;;;;;;2.48;nan;98635.69;5055433;28;20704;-71
2023/03/04 00:34:39;;;;;;;32.03;20.20;;;;;;;2.44;nan;98625.66;5055484;28;20205;-71
2023/03/04 00:37:05;;;;;;;29.60;20.43;;;;;;;2.48;nan;98632.25;5055404;28;20208;-71
2023/03/04 00:39:32;;;;;;;31.97;19.47;;;;;;;2.46;nan;98623.69;5055813;28;20202;-71
2023/03/04 00:41:58;;;;;;;30.90;19.47;;;;;;;2.44;nan;98625.66;5055551;28;20225;-71
2023/03/04 00:44:24;;;;;;;29.57;19.93;;;;;;;2.41;nan;98633.81;5055570;28;20201;-71
2023/03/04 00:46:51;;;;;;;28.70;20.23;;;;;;;2.43;nan;98626.63;5055712;28;20218;-70
2023/03/04 00:49:17;;;;;;;30.33;19.70;;;;;;;2.40;nan;98624.31;5055453;28;20221;-71
2023/03/04 00:51:43;;;;;;;31.03;21.20;;;;;;;2.32;nan;98632.13;5055394;28;20201;-71
2023/03/04 00:54:10;;;;;;;30.63;19.40;;;;;;;2.32;nan;98632.13;5056199;28;20209;-71
2023/03/04 00:56:36;;;;;;;29.90;20.03;;;;;;;2.26;nan;98624.88;5055367;28;20224;-71
2023/03/04 00:59:02;;;;;;;27.77;19.37;;;;;;;2.17;nan;98631.03;5055337;28;20566;-71
2023/03/04 01:01:29;;;;;;;29.17;20.00;;;;;;;2.16;nan;98626.78;5055222;28;20327;-71
2023/03/04 01:03:55;;;;;;;29.23;19.27;;;;;;;2.13;nan;98627.91;5055207;28;20206;-71
2023/03/04 01:06:21;;;;;;;31.23;21.20;;;;;;;2.13;nan;98632.31;5055407;28;20213;-71
2023/03/04 01:08:48;;;;;;;31.40;20.07;;;;;;;2.12;nan;98628.84;5055021;28;20216;-71
2023/03/04 01:11:14;;;;;;;30.30;20.40;;;;;;;2.05;nan;98629.63;5054645;28;20207;-71
2023/03/04 01:13:41;;;;;;;30.50;19.17;;;;;;;2.09;nan;98620.47;5054690;28;20708;-71
2023/03/04 01:16:09;;;;;;;28.93;19.30;;;;;;;2.00;nan;98621.38;5053788;28;20691;-71
2023/03/04 01:18:36;;;;;;;27.97;19.30;;;;;;;2.01;nan;98620.41;5054858;28;20209;-71
2023/03/04 01:21:02;;;;;;;28.60;18.77;;;;;;;2.01;nan;98623.88;5054818;28;20201;-71
2023/03/04 01:23:29;;;;;;;30.30;20.07;;;;;;;1.95;nan;98615.78;5054814;28;20587;-71
2023/03/04 01:25:55;;;;;;;27.60;18.97;;;;;;;1.94;nan;98616.75;5054748;28;20205;-71
2023/03/04 01:28:22;;;;;;;29.83;19.00;;;;;;;1.92;nan;98621.31;5054162;28;20209;-71
2023/03/04 01:30:48;;;;;;;28.47;19.63;;;;;;;1.89;nan;98608.53;5054572;28;20225;-70
2023/03/04 01:33:15;;;;;;;29.50;18.63;;;;;;;1.87;nan;98613.09;5054343;28;20256;-71
2023/03/04 01:35:41;;;;;;;31.40;19.30;;;;;;;1.82;nan;98613.53;5054324;28;20687;-71
2023/03/04 01:38:08;;;;;;;28.23;18.93;;;;;;;1.79;nan;98619.09;5054573;28;20205;-71
2023/03/04 01:40:34;;;;;;;28.60;19.23;;;;;;;1.78;nan;98611.38;5054218;28;20202;-71
2023/03/04 01:43:01;;;;;;;28.67;17.97;;;;;;;1.77;nan;98615.81;5054365;28;20232;-70
2023/03/04 01:45:27;;;;;;;26.97;17.93;;;;;;;1.72;nan;98604.91;5054638;28;20213;-70
2023/03/04 01:47:54;;;;;;;31.40;18.93;;;;;;;1.71;nan;98605.91;5054352;28;20208;-70
2023/03/04 01:50:34;;;;;;;30.97;19.93;;;;;;;1.66;nan;98608.16;5053876;28;20688;-71
2023/03/04 01:53:03;;;;;;;30.60;19.73;;;;;;;1.67;nan;98608.97;5054212;28;20350;-71
2023/03/04 01:55:30;;;;;;;27.40;20.03;;;;;;;1.56;nan;98610.03;5054164;28;20224;-71
2023/03/04 01:57:57;;;;;;;29.07;19.60;;;;;;;1.50;nan;98613.25;5054398;28;20208;-71
2023/03/04 02:00:36;;;;;;;29.87;19.27;;;;;;;1.47;nan;98607.47;5054151;28;20235;-70
2023/03/04 02:03:07;;;;;;;27.03;18.40;;;;;;;1.45;nan;98612.03;5053758;28;20708;-70
2023/03/04 02:05:35;;;;;;;29.37;18.60;;;;;;;1.50;nan;98607.19;5054125;28;20189;-71
2023/03/04 02:08:04;;;;;;;24.77;17.63;;;;;;;1.44;nan;98608.59;5053734;28;20687;-71
2023/03/04 02:10:31;;;;;;;26.20;17.70;;;;;;;1.39;nan;98608.22;5053870;28;20228;-70
2023/03/04 02:12:58;;;;;;;30.37;18.20;;;;;;;1.49;nan;98606.34;5053903;28;20226;-70
2023/03/04 02:15:25;;;;;;;24.40;17.37;;;;;;;1.43;nan;98590.38;5053728;28;20220;-71
2023/03/04 02:17:51;;;;;;;28.57;18.20;;;;;;;1.40;nan;98595.94;5053588;28;20664;-70
2023/03/04 02:20:29;;;;;;;29.43;17.33;;;;;;;1.31;nan;98599.44;5053856;28;20212;-71
2023/03/04 02:23:11;;;;;;;26.13;17.83;;;;;;;1.29;nan;98598.75;5053490;28;20746;-71
2023/03/04 02:25:45;;;;;;;27.90;17.43;;;;;;;1.34;nan;98601.75;5053432;28;20209;-71
2023/03/04 02:28:11;;;;;;;26.03;17.10;;;;;;;1.18;nan;98596.38;5052136;28;20189;-70
2023/03/04 02:30:37;;;;;;;24.97;17.10;;;;;;;1.22;nan;98598.53;5053662;28;20228;-71
2023/03/04 02:33:04;;;;;;;26.53;17.20;;;;;;;1.20;nan;98589.16;5053550;28;20229;-71
2023/03/04 02:35:30;;;;;;;24.73;17.13;;;;;;;1.24;nan;98593.16;5053610;28;20232;-71
2023/03/04 02:37:57;;;;;;;25.20;16.67;;;;;;;1.20;nan;98591.78;5053514;28;20205;-71
2023/03/04 02:40:29;;;;;;;26.80;16.90;;;;;;;1.09;nan;98595.47;5053578;28;20207;-70
2023/03/04 02:42:59;;;;;;;24.53;16.20;;;;;;;1.10;nan;98589.25;5052267;28;20727;-70
2023/03/04 02:45:36;;;;;;;26.23;17.57;;;;;;;1.02;nan;98597.00;5053477;28;20209;-70
2023/03/04 02:48:04;;;;;;;25.13;16.77;;;;;;;0.99;nan;98594.66;5053465;28;20220;-71
2023/03/04 02:50:34;;;;;;;25.10;16.57;;;;;;;1.02;nan;98598.78;5053300;28;20739;-71
2023/03/04 02:53:01;;;;;;;24.33;16.37;;;;;;;1.02;nan;98597.00;5053116;28;20229;-71
2023/03/04 02:55:28;;;;;;;23.33;16.10;;;;;;;0.99;nan;98599.91;5053365;28;20232;-70
2023/03/04 02:57:54;;;;;;;21.70;15.77;;;;;;;0.95;nan;98597.75;5053370;28;20207;-71
2023/03/04 03:00:21;;;;;;;25.47;16.10;;;;;;;0.85;nan;98597.78;5053386;28;20201;-70
2023/03/04 03:02:47;;;;;;;26.20;16.10;;;;;;;0.87;nan;98605.47;5053232;28;20225;-71
2023/03/04 03:05:14;;;;;;;26.23;16.43;;;;;;;0.92;nan;98600.63;5052916;28;20660;-70
2023/03/04 03:07:40;;;;;;;22.33;15.53;;;;;;;0.91;nan;98604.22;5053172;28;20213;-71
2023/03/04 03:10:07;;;;;;;25.43;15.90;;;;;;;0.84;nan;98609.22;5053147;28;20559;-70
2023/03/04 03:12:33;;;;;;;23.90;15.90;;;;;;;0.88;nan;98600.09;5053113;28;20231;-71
2023/03/04 03:14:59;;;;;;;22.83;15.70;;;;;;;0.91;nan;98604.22;5052649;28;20208;-70
2023/03/04 03:17:26;;;;;;;25.67;16.23;;;;;;;0.85;nan;98605.63;5053598;28;20205;-71
2023/03/04 03:19:52;;;;;;;25.93;17.20;;;;;;;0.83;nan;98607.56;5053002;28;20201;-70
2023/03/04 03:22:18;;;;;;;25.07;17.30;;;;;;;0.77;nan;98592.44;5052939;28;20232;-70
2023/03/04 03:24:45;;;;;;;24.70;16.23;;;;;;;0.76;nan;98590.78;5052892;28;20205;-70
2023/03/04 03:27:11;;;;;;;25.37;16.43;;;;;;;0.72;nan;98602.50;5052986;28;20205;-70
2023/03/04 03:29:37;;;;;;;26.27;16.10;;;;;;;0.67;nan;98598.69;5052882;28;20209;-71
2023/03/04 03:32:04;;;;;;;26.77;16.83;;;;;;;0.68;nan;98595.09;5052580;28;20225;-70
2023/03/04 03:34:30;;;;;;;23.50;16.77;;;;;;;0.59;nan;98598.59;5052923;28;20240;-70
2023/03/04 03:36:57;;;;;;;27.27;17.30;;;;;;;0.57;nan;98593.50;5052717;28;20205;-70
2023/03/04 03:39:23;;;;;;;26.17;16.80;;;;;;;0.53;nan;98593.94;5056598;28;20209;-71
2023/03/04 03:41:49;;;;;;;26.47;16.67;;;;;;;0.59;nan;98588.13;5056448;28;20232;-71
2023/03/04 03:44:16;;;;;;;26.73;17.27;;;;;;;0.52;nan;98590.47;5057258;28;20727;-70
2023/03/04 03:46:42;;;;;;;23.87;16.63;;;;;;;0.47;nan;98594.50;5056723;28;20201;-70
2023/03/04 03:49:09;;;;;;;25.97;17.10;;;;;;;0.53;nan;98591.31;5056642;28;20205;-71
2023/03/04 03:51:35;;;;;;;25.97;16.93;;;;;;;0.55;nan;98592.00;5056145;28;20229;-71
2023/03/04 03:54:01;;;;;;;26.10;16.77;;;;;;;0.58;nan;98586.47;5056119;28;20213;-71
2023/03/04 03:56:28;;;;;;;24.87;17.23;;;;;;;0.56;nan;98585.78;5056156;28;20683;-70
2023/03/04 03:58:54;;;;;;;27.60;17.47;;;;;;;0.60;nan;98589.75;5056512;28;20208;-71
2023/03/04 04:01:20;;;;;;;25.67;17.23;;;;;;;0.57;nan;98592.66;5056321;28;20202;-70
2023/03/04 04:03:47;;;;;;;27.20;17.67;;;;;;;0.54;nan;98590.34;5056180;28;20221;-71
2023/03/04 04:06:13;;;;;;;25.17;16.90;;;;;;;0.59;nan;98590.75;5056183;28;20205;-71
2023/03/04 04:08:40;;;;;;;26.80;17.70;;;;;;;0.59;nan;98590.75;5056142;28;20344;-70
2023/03/04 04:11:06;;;;;;;26.60;17.07;;;;;;;0.67;nan;98596.09;5056042;28;20221;-70
2023/03/04 04:13:32;;;;;;;25.13;17.07;;;;;;;0.68;nan;98592.50;5055971;28;20221;-70
2023/03/04 04:15:59;;;;;;;24.87;17.47;;;;;;;0.65;nan;98595.38;5055866;28;20213;-71
2023/03/04 04:18:25;;;;;;;25.77;17.03;;;;;;;0.57;nan;98605.72;5055766;28;20725;-71
2023/03/04 04:20:52;;;;;;;26.97;17.07;;;;;;;0.53;nan;98604.41;5056081;28;20201;-71
2023/03/04 04:23:19;;;;;;;24.43;16.43;;;;;;;0.48;nan;98591.72;5055871;28;20227;-71
2023/03/04 04:25:45;;;;;;;25.97;16.73;;;;;;;0.47;nan;98605.78;5056023;28;20232;-71
2023/03/04 04:28:11;;;;;;;25.67;17.33;;;;;;;0.41;nan;98600.28;5055850;28;20201;-71
2023/03/04 04:30:38;;;;;;;28.60;17.53;;;;;;;0.49;nan;98592.56;5055477;28;20221;-71
2023/03/04 04:33:05;;;;;;;27.90;16.87;;;;;;;0.43;nan;98600.97;5054608;28;20225;-71
2023/03/04 04:35:37;;;;;;;25.50;17.00;;;;;;;0.38;nan;98596.97;5055578;28;20212;-71
2023/03/04 04:38:04;;;;;;;28.77;17.37;;;;;;;0.32;nan;98600.19;5055434;28;20209;-70
2023/03/04 04:40:30;;;;;;;24.73;16.40;;;;;;;0.38;nan;98610.06;5055681;28;20205;-71
2023/03/04 04:42:57;;;;;;;24.97;16.90;;;;;;;0.37;nan;98602.38;5055544;28;20247;-71
2023/03/04 04:45:24;;;;;;;25.33;16.87;;;;;;;0.36;nan;98608.56;5055574;28;20204;-71
2023/03/04 04:47:56;;;;;;;25.63;16.57;;;;;;;0.37;nan;98612.84;5055516;28;20209;-71
2023/03/04 04:50:25;;;;;;;26.40;16.50;;;;;;;0.34;nan;98605.28;5054400;28;20221;-71
2023/03/04 04:52:52;;;;;;;25.77;17.63;;;;;;;0.30;nan;98603.09;5055187;28;20228;-71
2023/03/04 04:55:18;;;;;;;27.03;17.27;;;;;;;0.21;nan;98604.75;5055031;28;20209;-71
2023/03/04 04:57:45;;;;;;;28.30;17.63;;;;;;;0.22;nan;98600.34;5055325;28;20205;-71
2023/03/04 05:00:12;;;;;;;25.80;17.50;;;;;;;0.15;nan;98600.91;5055269;28;20208;-71
2023/03/04 05:02:38;;;;;;;27.97;17.80;;;;;;;0.09;nan;98601.47;5055282;28;20229;-71
2023/03/04 05:05:07;;;;;;;26.93;17.00;;;;;;;0.13;nan;98600.22;5055222;28;20205;-71
2023/03/04 05:07:34;;;;;;;27.33;17.30;;;;;;;0.08;nan;98599.81;5054768;28;20625;-71
2023/03/04 05:10:00;;;;;;;29.73;17.20;;;;;;;0.13;nan;98602.84;5054815;28;20212;-71
2023/03/04 05:12:27;;;;;;;28.70;18.43;;;;;;;0.00;nan;98604.94;5054293;28;20235;-71
2023/03/04 05:14:53;;;;;;;28.17;17.33;;;;;;;0.05;nan;98621.00;5054361;28;20217;-71
2023/03/04 05:17:20;;;;;;;29.50;19.00;;;;;;;0.02;nan;98617.84;5054883;28;20186;-71
2023/03/04 05:19:46;;;;;;;28.47;18.00;;;;;;;-0.01;nan;98616.34;5054648;28;20291;-71
2023/03/04 05:22:12;;;;;;;30.10;18.93;;;;;;;-0.04;nan;98621.03;5054629;28;20228;-71
2023/03/04 05:24:39;;;;;;;28.77;18.33;;;;;;;-0.02;nan;98625.16;5054166;28;20205;-71
2023/03/04 05:27:05;;;;;;;27.83;17.77;;;;;;;-0.02;nan;98626.94;5054645;28;20205;-71
2023/03/04 05:29:31;;;;;;;30.20;18.80;;;;;;;-0.13;nan;98620.06;5054170;28;20209;-71
2023/03/04 05:31:58;;;;;;;29.23;18.97;;;;;;;-0.02;nan;98627.78;5054026;28;20229;-71
2023/03/04 05:34:24;;;;;;;31.50;19.20;;;;;;;-0.07;nan;98623.91;5053961;28;20206;-71
2023/03/04 05:36:50;;;;;;;30.53;18.77;;;;;;;-0.06;nan;98633.41;5054046;28;20692;-71
2023/03/04 05:39:17;;;;;;;32.73;19.13;;;;;;;-0.07;nan;98639.59;5054377;28;20776;-71
2023/03/04 05:41:43;;;;;;;31.90;19.30;;;;;;;-0.03;nan;98631.31;5054272;28;20434;-71
2023/03/04 05:44:10;;;;;;;31.83;19.60;;;;;;;-0.13;nan;98633.13;5054270;28;20205;-71
2023/03/04 05:46:36;;;;;;;31.73;18.57;;;;;;;-0.09;nan;98637.13;5053833;28;20457;-71
2023/03/04 05:49:02;;;;;;;32.60;19.40;;;;;;;-0.18;nan;98632.72;5053938;28;20211;-71
2023/03/04 05:51:29;;;;;;;29.03;19.00;;;;;;;-0.28;nan;98634.50;5054231;28;20313;-71
2023/03/04 05:53:55;;;;;;;32.13;19.20;;;;;;;-0.22;nan;98633.16;5054108;28;20525;-71
2023/03/04 05:56:22;;;;;;;32.90;19.43;;;;;;;-0.23;nan;98629.69;5054188;28;20442;-71
2023/03/04 05:58:48;;;;;;;32.47;19.20;;;;;;;-0.23;nan;98631.47;5054182;28;20235;-71
2023/03/04 06:01:15;;;;;;;30.00;18.37;;;;;;;-0.26;nan;98635.19;5053774;28;20570;-71
2023/03/04 06:03:42;;;;;;;31.97;19.87;;;;;;;-0.25;nan;98634.25;5053985;28;20235;-70
2023/03/04 06:06:08;;;;;;;28.87;17.60;;;;;;;-0.23;nan;98634.94;5053948;28;20201;-70
2023/03/04 06:08:35;;;;;;;30.63;18.53;;;;;;;-0.36;nan;98634.38;5053561;28;20212;-71
2023/03/04 06:11:01;;;;;;;31.00;19.07;;;;;;;-0.37;nan;98637.13;5053821;28;20581;-71
2023/03/04 06:13:28;;;;;;;32.77;17.70;;;;;;;-0.36;nan;98639.59;5053464;28;20783;-71
2023/03/04 06:15:56;;;;;;;30.43;19.20;;;;;;;-0.46;nan;98636.16;5053698;28;20460;-71
2023/03/04 06:18:23;;;;;;;34.10;19.53;;;;;;;-0.46;nan;98644.00;5053711;28;20209;-71
2023/03/04 06:20:50;;;;;;;33.43;20.47;;;;;;;-0.45;nan;98648.25;5053426;28;20435;-70
2023/03/04 06:23:17;;;;;;;30.63;19.73;;;;;;;-0.47;nan;98647.56;5053231;28;20462;-70
2023/03/04 06:25:43;;;;;;;32.33;20.30;;;;;;;-0.45;nan;98653.47;5053525;28;20438;-70
2023/03/04 06:28:09;;;;;;;35.73;21.17;;;;;;;-0.44;nan;98657.72;5053263;28;20446;-71
2023/03/04 06:30:36;;;;;;;31.13;17.60;;;;;;;-0.42;nan;98660.19;5053193;28;21000;-70
2023/03/04 06:33:02;;;;;;;32.40;19.17;;;;;;;-0.45;nan;98666.53;5053180;28;20984;-70
2023/03/04 06:35:28;;;;;;;30.80;18.87;;;;;;;-0.40;nan;98666.13;5053114;28;20438;-70
2023/03/04 06:37:55;;;;;;;32.03;20.50;;;;;;;-0.52;nan;98673.28;5053461;28;20441;-70
2023/03/04 06:40:21;;;;;;;34.13;20.43;;;;;;;-0.41;nan;98670.53;5053368;28;20461;-71
2023/03/04 06:42:47;;;;;;;27.97;15.80;;;;;;;-0.43;nan;98688.13;5053282;28;20462;-70
2023/03/04 06:45:14;;;;;;;31.07;19.63;;;;;;;-0.41;nan;98675.75;5053385;28;20296;-70
2023/03/04 06:47:40;;;;;;;34.93;19.57;;;;;;;-0.34;nan;98684.72;5053049;28;21028;-70
2023/03/04 06:50:07;;;;;;;34.63;20.17;;;;;;;-0.27;nan;98685.78;5053359;28;20441;-70
2023/03/04 06:52:33;;;;;;;30.00;19.83;;;;;;;-0.22;nan;98690.63;5053195;28;20599;-70
2023/03/04 06:55:00;;;;;;;34.13;20.07;;;;;;;-0.19;nan;98683.34;5053252;28;20216;-71
2023/03/04 06:57:26;;;;;;;29.27;17.57;;;;;;;-0.10;nan;98686.91;5052923;28;20216;-70
2023/03/04 06:59:52;;;;;;;33.80;20.37;;;;;;;-0.19;nan;98695.56;5052992;28;20561;-71
2023/03/04 07:02:19;;;;;;;31.80;20.10;;;;;;;-0.05;nan;98700.38;5052882;28;20708;-71
2023/03/04 07:04:45;;;;;;;29.83;18.57;;;;;;;-0.08;nan;98698.06;5053193;28;20201;-70
2023/03/04 07:07:11;;;;;;;33.53;20.63;;;;;;;0.06;nan;98700.25;5053036;28;20205;-70
2023/03/04 07:09:38;;;;;;;30.67;18.80;;;;;;;0.14;nan;98701.22;5053388;28;20764;-70
2023/03/04 07:12:04;;;;;;;29.83;18.97;;;;;;;0.09;nan;98706.03;5052672;28;20696;-70
2023/03/04 07:14:31;;;;;;;34.43;19.23;;;;;;;0.03;nan;98699.72;5056538;28;20440;-70
2023/03/04 07:16:57;;;;;;;30.07;19.00;;;;;;;0.08;nan;98700.94;5057894;28;20448;-70
2023/03/04 07:19:24;;;;;;;30.07;19.20;;;;;;;0.26;nan;98701.09;5057011;28;20215;-70
2023/03/04 07:21:50;;;;;;;29.47;16.70;;;;;;;0.57;nan;98713.00;5056934;28;20247;-70
2023/03/04 07:24:16;;;;;;;33.20;19.57;;;;;;;0.52;nan;98713.44;5056727;28;20213;-70
2023/03/04 07:26:43;;;;;;;30.70;18.57;;;;;;;0.50;nan;98715.38;5056940;28;20204;-70
2023/03/04 07:29:09;;;;;;;27.13;18.23;;;;;;;0.57;nan;98720.84;5056904;28;20201;-70
2023/03/04 07:31:36;;;;;;;31.17;18.70;;;;;;;0.42;nan;98719.63;5056396;28;20235;-70
2023/03/04 07:34:08;;;;;;;28.17;17.87;;;;;;;0.53;nan;98717.69;5056826;28;20578;-70
2023/03/04 07:36:36;;;;;;;27.57;17.87;;;;;;;0.63;nan;98710.63;5056858;28;20255;-70
2023/03/04 07:39:03;;;;;;;28.00;18.83;;;;;;;0.76;nan;98715.59;5056417;28;20697;-70
2023/03/04 07:41:30;;;;;;;28.33;17.13;;;;;;;0.69;nan;98727.56;5056535;28;20262;-70
2023/03/04 07:43:57;;;;;;;22.73;17.40;;;;;;;0.74;nan;98727.97;5055986;28;20680;-70
2023/03/04 07:46:25;;;;;;;26.80;17.17;;;;;;;0.70;nan;98727.44;5056511;28;20213;-70
2023/03/04 07:48:51;;;;;;;30.10;17.37;;;;;;;0.86;nan;98732.09;5056386;28;20212;-70
2023/03/04 07:51:22;;;;;;;24.47;17.17;;;;;;;1.09;nan;98729.00;5056422;28;20217;-70
2023/03/04 07:53:51;;;;;;;26.20;17.13;;;;;;;0.97;nan;98731.91;5056294;28;20241;-70
2023/03/04 07:56:22;;;;;;;26.60;16.27;;;;;;;0.71;nan;98742.16;5056288;28;20255;-70
2023/03/04 07:58:51;;;;;;;24.67;16.17;;;;;;;0.86;nan;98735.50;5056737;28;20544;-71
2023/03/04 08:01:20;;;;;;;23.53;15.67;;;;;;;0.63;nan;98739.41;5056543;28;20206;-70
2023/03/04 08:03:46;;;;;;;25.50;16.03;;;;;;;0.77;nan;98743.41;5055662;28;20233;-71
2023/03/04 08:06:15;;;;;;;25.03;15.87;;;;;;;1.03;nan;98740.00;5056059;28;20205;-70
2023/03/04 08:08:42;;;;;;;22.67;14.73;;;;;;;0.86;nan;98738.13;5055973;28;20586;-71
2023/03/04 08:11:12;;;;;;;22.07;15.30;;;;;;;0.86;nan;98745.19;5055873;28;20221;-71
2023/03/04 08:13:38;;;;;;;22.23;15.30;;;;;;;0.91;nan;98741.16;5056035;28;20221;-70
2023/03/04 08:16:05;;;;;;;26.07;15.20;;;;;;;0.73;nan;98737.63;5055714;28;20227;-70
2023/03/04 08:18:32;;;;;;;25.50;16.07;;;;;;;0.60;nan;98751.97;5055880;28;20216;-70
2023/03/04 08:20:59;;;;;;;25.40;16.30;;;;;;;0.90;nan;98754.41;5055963;28;20205;-70
2023/03/04 08:23:25;;;;;;;23.27;15.00;;;;;;;0.76;nan;98753.03;5055245;28;20587;-70
2023/03/04 08:25:52;;;;;;;24.60;15.67;;;;;;;1.13;nan;98745.22;5055480;28;20221;-70
2023/03/04 08:28:18;;;;;;;25.50;16.47;;;;;;;1.07;nan;98757.09;5055354;28;20205;-70
2023/03/04 08:30:45;;;;;;;26.73;16.33;;;;;;;1.00;nan;98755.19;5054343;28;20227;-70
2023/03/04 08:33:11;;;;;;;27.67;17.47;;;;;;;0.67;nan;98763.53;5055598;28;20221;-70
2023/03/04 08:35:39;;;;;;;30.43;18.03;;;;;;;0.88;nan;98762.38;5055479;28;20211;-70
2023/03/04 08:38:06;;;;;;;26.53;16.90;;;;;;;1.11;nan;98755.00;5055550;28;20201;-70
2023/03/04 08:40:33;;;;;;;25.47;16.63;;;;;;;0.97;nan;98765.94;5055010;28;20209;-70
2023/03/04 08:42:59;;;;;;;34.37;19.63;;;;;;;0.38;nan;98767.94;5055351;28;20224;-70
2023/03/04 08:45:26;;;;;;;30.00;18.70;;;;;;;0.47;nan;98772.34;5055547;28;20205;-70
2023/03/04 08:47:52;;;;;;;30.83;19.23;;;;;;;0.61;nan;98769.31;5055397;28;20236;-70
2023/03/04 08:50:18;;;;;;;32.37;19.53;;;;;;;0.75;nan;98767.09;5055090;28;20205;-71
2023/03/04 08:52:45;;;;;;;29.30;19.17;;;;;;;1.24;nan;98763.38;5055031;28;20236;-70
2023/03/04 08:55:11;;;;;;;26.53;17.57;;;;;;;1.57;nan;98754.97;5055949;28;20213;-70
2023/03/04 08:57:37;;;;;;;28.77;18.77;;;;;;;1.22;nan;98749.63;5055451;28;20223;-70
2023/03/04 09:00:04;;;;;;;27.67;18.03;;;;;;;1.61;nan;98756.31;5054981;28;20212;-71
2023/03/04 09:02:31;;;;;;;26.57;17.80;;;;;;;1.75;nan;98751.41;5054824;28;20586;-70
2023/03/04 09:04:57;;;;;;;27.10;17.57;;;;;;;1.63;nan;98768.28;5055743;28;20216;-70
2023/03/04 09:07:24;;;;;;;29.83;18.67;;;;;;;1.68;nan;98767.88;5055306;28;20210;-71
2023/03/04 09:09:50;;;;;;;27.60;18.40;;;;;;;1.68;nan;98767.88;5054655;28;20208;-70
2023/03/04 09:12:17;;;;;;;26.50;16.40;;;;;;;1.59;nan;98776.59;5054485;28;20225;-70
2023/03/04 09:14:43;;;;;;;27.27;16.80;;;;;;;1.69;nan;98769.50;5054630;28;20211;-70
2023/03/04 09:17:09;;;;;;;26.57;17.40;;;;;;;1.67;nan;98767.03;5054811;28;20194;-70
2023/03/04 09:19:37;;;;;;;21.73;15.33;;;;;;;2.02;nan;98779.38;5054687;28;20209;-70
2023/03/04 09:22:03;;;;;;;25.07;15.67;;;;;;;1.90;nan;98770.09;5054619;28;20415;-70
2023/03/04 09:24:29;;;;;;;24.50;15.93;;;;;;;1.70;nan;98771.16;5054376;28;20201;-71
2023/03/04 09:26:56;;;;;;;23.53;16.50;;;;;;;1.67;nan;98766.22;5054204;28;20206;-70
2023/03/04 09:29:23;;;;;;;24.23;16.60;;;;;;;1.72;nan;98775.28;5054327;28;20209;-70
2023/03/04 09:31:50;;;;;;;27.00;17.10;;;;;;;1.51;nan;98777.34;5054214;28;20647;-70
2023/03/04 09:34:16;;;;;;;27.13;16.93;;;;;;;1.58;nan;98769.72;5054043;28;20220;-70
2023/03/04 09:36:43;;;;;;;23.83;16.53;;;;;;;1.70;nan;98771.16;5053312;28;20672;-70
2023/03/04 09:39:09;;;;;;;23.63;15.40;;;;;;;1.87;nan;98775.63;5054143;28;20205;-70
2023/03/04 09:41:48;;;;;;;22.87;16.30;;;;;;;1.77;nan;98761.75;5054069;28;20201;-70
2023/03/04 09:44:38;;;;;;;23.27;16.60;;;;;;;2.01;nan;98769.88;5054132;28;20209;-70
2023/03/04 09:47:12;;;;;;;23.07;16.00;;;;;;;2.24;nan;98769.31;5052984;28;20194;-70
2023/03/04 09:49:41;;;;;;;22.40;15.50;;;;;;;2.30;nan;98767.88;5054174;28;20197;-70
2023/03/04 09:52:30;;;;;;;22.47;15.30;;;;;;;2.34;nan;98769.25;5053686;28;20599;-70
2023/03/04 09:55:28;;;;;;;21.53;15.27;;;;;;;2.25;nan;98764.88;5054166;28;20190;-70
2023/03/04 09:58:23;;;;;;;22.73;16.00;;;;;;;2.59;nan;98771.91;5053532;28;20189;-70
2023/03/04 10:00:58;;;;;;;22.80;15.73;;;;;;;2.55;nan;98773.19;5049782;28;20672;-70
2023/03/04 10:03:33;;;;;;;22.83;15.97;;;;;;;3.07;nan;98772.25;5053776;28;20223;-70
2023/03/04 10:06:07;;;;;;;22.87;15.73;;;;;;;2.76;nan;98771.06;5055804;28;20551;-71
2023/03/04 10:08:42;;;;;;;21.37;15.83;;;;;;;2.91;nan;98769.53;5054437;28;20194;-70
2023/03/04 10:11:35;;;;;;;25.83;16.30;;;;;;;3.01;nan;98770.25;5065871;28;20200;-71
2023/03/04 10:14:23;;;;;;;22.03;14.97;;;;;;;2.95;nan;98773.50;5056811;28;20206;-71
2023/03/04 10:16:57;;;;;;;21.67;15.07;;;;;;;3.07;nan;98769.63;5053176;28;20216;-71
2023/03/04 10:20:02;;;;;;;19.93;15.43;;;;;;;2.78;nan;98766.50;5071070;28;20204;-71
2023/03/04 10:22:36;;;;;;;23.03;16.47;;;;;;;2.54;nan;98757.59;5069769;28;20672;-72
2023/03/04 10:25:21;;;;;;;23.00;16.43;;;;;;;2.57;nan;98765.19;5054072;28;20200;-75
2023/03/04 10:28:01;;;;;;;22.70;17.07;;;;;;;2.75;nan;98763.34;5052947;28;20212;-75
2023/03/04 10:30:49;;;;;;;26.10;17.90;;;;;;;3.07;nan;98764.38;5053259;28;20193;-74
2023/03/04 10:33:26;;;;;;;25.50;18.03;;;;;;;2.86;nan;98755.22;5053220;28;20233;-75
2023/03/04 10:36:18;;;;;;;24.90;17.37;;;;;;;3.07;nan;98753.06;5052961;28;20201;-75
2023/03/04 10:38:45;;;;;;;25.47;18.27;;;;;;;3.40;nan;98745.22;5053108;28;20197;-75
2023/03/04 10:41:15;;;;;;;26.90;19.13;;;;;;;3.40;nan;98757.50;5052854;28;20316;-75
2023/03/04 10:43:44;;;;;;;27.87;19.27;;;;;;;3.30;nan;98752.34;5052772;28;20225;-75
2023/03/04 10:46:11;;;;;;;26.23;19.50;;;;;;;3.34;nan;98751.06;5065537;28;20640;-75
2023/03/04 10:48:41;;;;;;;25.80;18.97;;;;;;;3.36;nan;98750.91;5051519;28;20209;-75
2023/03/04 10:51:10;;;;;;;24.97;18.43;;;;;;;3.20;nan;98745.59;5053018;28;20193;-75
2023/03/04 10:53:41;;;;;;;28.90;19.63;;;;;;;3.34;nan;98732.69;5051850;28;20221;-75
2023/03/04 10:56:37;;;;;;;26.93;20.17;;;;;;;3.04;nan;98735.81;5052788;28;20221;-75
2023/03/04 10:59:25;;;;;;;28.87;20.67;;;;;;;3.11;nan;98734.19;5052239;28;20335;-74
2023/03/04 11:01:54;;;;;;;27.63;20.43;;;;;;;3.12;nan;98738.47;5052949;28;20229;-74
2023/03/04 11:04:24;;;;;;;31.20;22.90;;;;;;;3.23;nan;98732.97;5053639;28;20212;-75
2023/03/04 11:06:51;;;;;;;30.77;22.47;;;;;;;3.38;nan;98728.75;5052790;28;20201;-75
2023/03/04 11:09:28;;;;;;;29.17;22.10;;;;;;;3.25;nan;98732.81;5052320;28;20211;-75
2023/03/04 11:11:59;;;;;;;29.83;22.63;;;;;;;3.33;nan;98728.41;5052390;28;20228;-74
2023/03/04 11:14:29;;;;;;;28.90;22.33;;;;;;;3.14;nan;98726.03;5052257;28;20200;-74
2023/03/04 11:17:01;;;;;;;25.93;18.93;;;;;;;3.23;nan;98725.06;5072348;28;20216;-74
2023/03/04 11:19:39;;;;;;;31.53;22.73;;;;;;;3.10;nan;98718.59;5072784;28;20208;-74
2023/03/04 11:22:06;;;;;;;33.47;22.83;;;;;;;3.43;nan;98723.84;5056340;28;20256;-74
2023/03/04 11:24:35;;;;;;;28.33;22.50;;;;;;;3.38;nan;98717.41;5062303;28;20204;-74
2023/03/04 11:27:34;;;;;;;33.53;23.70;;;;;;;3.39;nan;98713.81;5051852;28;20638;-74
2023/03/04 11:30:24;;;;;;;33.23;24.17;;;;;;;3.11;nan;98721.06;5035939;28;20205;-74
2023/03/04 11:32:55;;;;;;;36.17;24.40;;;;;;;3.36;nan;98714.13;5054722;28;20233;-74
2023/03/04 11:35:22;;;;;;;33.27;25.13;;;;;;;3.30;nan;98717.41;5054330;28;20197;-74
2023/03/04 11:38:04;;;;;;;35.67;25.67;;;;;;;3.41;nan;98717.94;5051216;28;20237;-74
2023/03/04 11:40:40;;;;;;;36.20;25.33;;;;;;;3.44;nan;98707.09;5052305;28;20197;-74
2023/03/04 11:43:38;;;;;;;36.63;24.20;;;;;;;3.52;nan;98708.94;5052118;28;20244;-74
2023/03/04 11:46:25;;;;;;;29.60;21.93;;;;;;;3.36;nan;98706.25;5067918;28;20201;-74
2023/03/04 11:49:14;;;;;;;32.90;24.13;;;;;;;3.09;nan;98704.66;5061271;28;20205;-74